sensor_id;sensor_type;location;lat;lon;timestamp;P1;durP1;ratioP1;P2;durP2;ratioP2
65202;SDS011;51788;45.124;38.966;2022-07-21T00:01:50;6.22;;;3.65;;
65202;SDS011;51788;45.124;38.966;2022-07-21T00:04:18;13.73;;;3.38;;
65202;SDS011;51788;45.124;38.966;2022-07-21T00:06:45;3.63;;;3.25;;
65202;SDS011;51788;45.124;38.966;2022-07-21T00:09:12;5.32;;;3.13;;
65202;SDS011;51788;45.124;38.966;2022-07-21T00:11:40;16.05;;;3.20;;
65202;SDS011;51788;45.124;38.966;2022-07-21T00:14:07;7.03;;;3.13;;
65202;SDS011;51788;45.124;38.966;2022-07-21T00:16:35;4.10;;;3.20;;
65202;SDS011;51788;45.124;38.966;2022-07-21T00:19:02;4.47;;;3.08;;
65202;SDS011;51788;45.124;38.966;2022-07-21T00:21:28;3.40;;;3.15;;
65202;SDS011;51788;45.124;38.966;2022-07-21T00:23:54;4.55;;;3.15;;
65202;SDS011;51788;45.124;38.966;2022-07-21T00:26:21;7.60;;;3.28;;
65202;SDS011;51788;45.124;38.966;2022-07-21T00:28:47;7.38;;;2.78;;
65202;SDS011;51788;45.124;38.966;2022-07-21T00:31:14;6.47;;;3.03;;
65202;SDS011;51788;45.124;38.966;2022-07-21T00:33:40;6.90;;;3.00;;
65202;SDS011;51788;45.124;38.966;2022-07-21T00:36:07;5.25;;;2.90;;
65202;SDS011;51788;45.124;38.966;2022-07-21T00:38:33;3.50;;;2.90;;
65202;SDS011;51788;45.124;38.966;2022-07-21T00:41:00;18.85;;;3.30;;
65202;SDS011;51788;45.124;38.966;2022-07-21T00:43:26;10.25;;;2.85;;
65202;SDS011;51788;45.124;38.966;2022-07-21T00:45:53;7.47;;;2.78;;
65202;SDS011;51788;45.124;38.966;2022-07-21T00:48:20;7.38;;;2.97;;
65202;SDS011;51788;45.124;38.966;2022-07-21T00:50:46;7.07;;;2.53;;
65202;SDS011;51788;45.124;38.966;2022-07-21T00:53:13;4.65;;;2.72;;
65202;SDS011;51788;45.124;38.966;2022-07-21T00:55:41;5.53;;;2.90;;
65202;SDS011;51788;45.124;38.966;2022-07-21T00:58:08;6.15;;;2.90;;
65202;SDS011;51788;45.124;38.966;2022-07-21T01:00:35;2.72;;;2.53;;
65202;SDS011;51788;45.124;38.966;2022-07-21T01:03:02;2.85;;;2.40;;
65202;SDS011;51788;45.124;38.966;2022-07-21T01:05:28;3.03;;;2.75;;
65202;SDS011;51788;45.124;38.966;2022-07-21T01:07:55;3.85;;;2.75;;
65202;SDS011;51788;45.124;38.966;2022-07-21T01:10:25;3.33;;;2.55;;
65202;SDS011;51788;45.124;38.966;2022-07-21T01:12:51;2.42;;;2.22;;
65202;SDS011;51788;45.124;38.966;2022-07-21T01:15:18;2.55;;;2.30;;
65202;SDS011;51788;45.124;38.966;2022-07-21T01:17:45;2.20;;;2.10;;
65202;SDS011;51788;45.124;38.966;2022-07-21T01:20:14;3.42;;;2.75;;
65202;SDS011;51788;45.124;38.966;2022-07-21T01:22:44;2.25;;;2.15;;
65202;SDS011;51788;45.124;38.966;2022-07-21T01:25:13;4.75;;;2.20;;
65202;SDS011;51788;45.124;38.966;2022-07-21T01:27:40;5.50;;;2.58;;
65202;SDS011;51788;45.124;38.966;2022-07-21T01:30:07;5.45;;;2.13;;
65202;SDS011;51788;45.124;38.966;2022-07-21T01:32:35;5.75;;;2.15;;
65202;SDS011;51788;45.124;38.966;2022-07-21T01:35:03;5.50;;;2.50;;
65202;SDS011;51788;45.124;38.966;2022-07-21T01:37:31;2.67;;;2.15;;
65202;SDS011;51788;45.124;38.966;2022-07-21T01:39:59;9.75;;;2.72;;
65202;SDS011;51788;45.124;38.966;2022-07-21T01:42:44;2.50;;;2.40;;
65202;SDS011;51788;45.124;38.966;2022-07-21T01:45:10;5.70;;;2.45;;
65202;SDS011;51788;45.124;38.966;2022-07-21T01:47:36;6.22;;;2.40;;
65202;SDS011;51788;45.124;38.966;2022-07-21T01:50:03;2.75;;;2.55;;
65202;SDS011;51788;45.124;38.966;2022-07-21T01:52:29;3.00;;;2.75;;
65202;SDS011;51788;45.124;38.966;2022-07-21T01:54:55;2.83;;;2.63;;
65202;SDS011;51788;45.124;38.966;2022-07-21T01:57:21;3.75;;;2.75;;
65202;SDS011;51788;45.124;38.966;2022-07-21T01:59:47;6.70;;;2.70;;
65202;SDS011;51788;45.124;38.966;2022-07-21T02:02:13;3.00;;;2.70;;
65202;SDS011;51788;45.124;38.966;2022-07-21T02:04:40;10.63;;;2.80;;
65202;SDS011;51788;45.124;38.966;2022-07-21T02:07:06;6.35;;;3.35;;
65202;SDS011;51788;45.124;38.966;2022-07-21T02:09:32;9.85;;;2.95;;
65202;SDS011;51788;45.124;38.966;2022-07-21T02:11:58;5.10;;;2.83;;
65202;SDS011;51788;45.124;38.966;2022-07-21T02:14:24;4.88;;;2.63;;
65202;SDS011;51788;45.124;38.966;2022-07-21T02:16:51;4.15;;;2.80;;
65202;SDS011;51788;45.124;38.966;2022-07-21T02:19:17;7.35;;;3.50;;
65202;SDS011;51788;45.124;38.966;2022-07-21T02:21:43;7.40;;;3.03;;
65202;SDS011;51788;45.124;38.966;2022-07-21T02:24:09;7.10;;;3.00;;
65202;SDS011;51788;45.124;38.966;2022-07-21T02:26:35;15.23;;;3.17;;
65202;SDS011;51788;45.124;38.966;2022-07-21T02:29:01;14.48;;;3.38;;
65202;SDS011;51788;45.124;38.966;2022-07-21T02:31:28;25.13;;;4.13;;
65202;SDS011;51788;45.124;38.966;2022-07-21T02:33:54;3.63;;;2.85;;
65202;SDS011;51788;45.124;38.966;2022-07-21T02:36:20;8.48;;;2.78;;
65202;SDS011;51788;45.124;38.966;2022-07-21T02:38:46;5.88;;;2.90;;
65202;SDS011;51788;45.124;38.966;2022-07-21T02:41:12;10.55;;;3.08;;
65202;SDS011;51788;45.124;38.966;2022-07-21T02:43:38;18.30;;;3.00;;
65202;SDS011;51788;45.124;38.966;2022-07-21T02:46:04;14.80;;;2.70;;
65202;SDS011;51788;45.124;38.966;2022-07-21T02:48:30;8.60;;;3.03;;
65202;SDS011;51788;45.124;38.966;2022-07-21T02:50:56;7.47;;;3.17;;
65202;SDS011;51788;45.124;38.966;2022-07-21T02:53:22;5.18;;;2.90;;
65202;SDS011;51788;45.124;38.966;2022-07-21T02:55:49;9.15;;;3.08;;
65202;SDS011;51788;45.124;38.966;2022-07-21T02:58:20;13.40;;;3.42;;
65202;SDS011;51788;45.124;38.966;2022-07-21T03:00:49;5.05;;;3.58;;
65202;SDS011;51788;45.124;38.966;2022-07-21T03:03:16;5.03;;;3.10;;
65202;SDS011;51788;45.124;38.966;2022-07-21T03:05:42;7.93;;;2.67;;
65202;SDS011;51788;45.124;38.966;2022-07-21T03:08:09;12.45;;;3.97;;
65202;SDS011;51788;45.124;38.966;2022-07-21T03:10:35;14.90;;;3.50;;
65202;SDS011;51788;45.124;38.966;2022-07-21T03:13:02;7.22;;;3.20;;
65202;SDS011;51788;45.124;38.966;2022-07-21T03:15:29;5.53;;;2.88;;
65202;SDS011;51788;45.124;38.966;2022-07-21T03:17:55;5.78;;;3.40;;
65202;SDS011;51788;45.124;38.966;2022-07-21T03:20:26;4.68;;;3.10;;
65202;SDS011;51788;45.124;38.966;2022-07-21T03:22:53;4.85;;;3.25;;
65202;SDS011;51788;45.124;38.966;2022-07-21T03:25:20;5.20;;;3.00;;
65202;SDS011;51788;45.124;38.966;2022-07-21T03:27:47;7.07;;;3.17;;
65202;SDS011;51788;45.124;38.966;2022-07-21T03:30:13;11.35;;;5.90;;
65202;SDS011;51788;45.124;38.966;2022-07-21T03:32:40;10.20;;;6.07;;
65202;SDS011;51788;45.124;38.966;2022-07-21T03:35:07;7.47;;;6.22;;
65202;SDS011;51788;45.124;38.966;2022-07-21T03:37:50;18.52;;;6.43;;
65202;SDS011;51788;45.124;38.966;2022-07-21T03:40:18;8.98;;;5.25;;
65202;SDS011;51788;45.124;38.966;2022-07-21T03:42:51;4.15;;;3.75;;
65202;SDS011;51788;45.124;38.966;2022-07-21T03:45:21;6.07;;;4.40;;
65202;SDS011;51788;45.124;38.966;2022-07-21T03:47:48;5.97;;;3.80;;
65202;SDS011;51788;45.124;38.966;2022-07-21T03:50:14;4.50;;;3.75;;
65202;SDS011;51788;45.124;38.966;2022-07-21T03:52:44;9.00;;;3.67;;
65202;SDS011;51788;45.124;38.966;2022-07-21T03:55:10;7.00;;;3.58;;
65202;SDS011;51788;45.124;38.966;2022-07-21T03:57:53;9.75;;;3.00;;
65202;SDS011;51788;45.124;38.966;2022-07-21T04:00:26;9.75;;;3.33;;
65202;SDS011;51788;45.124;38.966;2022-07-21T04:02:55;7.75;;;2.83;;
65202;SDS011;51788;45.124;38.966;2022-07-21T04:05:21;3.85;;;3.05;;
65202;SDS011;51788;45.124;38.966;2022-07-21T04:07:48;9.40;;;3.50;;
65202;SDS011;51788;45.124;38.966;2022-07-21T04:10:18;12.30;;;3.20;;
65202;SDS011;51788;45.124;38.966;2022-07-21T04:12:45;5.88;;;3.28;;
65202;SDS011;51788;45.124;38.966;2022-07-21T04:15:12;12.73;;;2.90;;
65202;SDS011;51788;45.124;38.966;2022-07-21T04:17:39;4.05;;;3.58;;
65202;SDS011;51788;45.124;38.966;2022-07-21T04:20:06;13.05;;;3.20;;
65202;SDS011;51788;45.124;38.966;2022-07-21T04:22:33;24.15;;;3.38;;
65202;SDS011;51788;45.124;38.966;2022-07-21T04:24:59;13.23;;;3.28;;
65202;SDS011;51788;45.124;38.966;2022-07-21T04:27:26;26.02;;;3.58;;
65202;SDS011;51788;45.124;38.966;2022-07-21T04:29:52;13.98;;;3.10;;
65202;SDS011;51788;45.124;38.966;2022-07-21T04:32:19;10.88;;;3.83;;
65202;SDS011;51788;45.124;38.966;2022-07-21T04:34:45;4.45;;;3.10;;
65202;SDS011;51788;45.124;38.966;2022-07-21T04:37:11;14.25;;;3.97;;
65202;SDS011;51788;45.124;38.966;2022-07-21T04:39:37;10.38;;;3.17;;
65202;SDS011;51788;45.124;38.966;2022-07-21T04:42:03;12.60;;;3.38;;
65202;SDS011;51788;45.124;38.966;2022-07-21T04:44:29;5.85;;;3.38;;
65202;SDS011;51788;45.124;38.966;2022-07-21T04:46:55;11.27;;;3.65;;
65202;SDS011;51788;45.124;38.966;2022-07-21T04:49:21;6.30;;;3.38;;
65202;SDS011;51788;45.124;38.966;2022-07-21T04:51:47;9.90;;;3.58;;
65202;SDS011;51788;45.124;38.966;2022-07-21T04:54:13;4.47;;;3.13;;
65202;SDS011;51788;45.124;38.966;2022-07-21T04:56:40;7.00;;;3.20;;
65202;SDS011;51788;45.124;38.966;2022-07-21T04:59:07;14.02;;;3.40;;
65202;SDS011;51788;45.124;38.966;2022-07-21T05:01:33;9.10;;;3.20;;
65202;SDS011;51788;45.124;38.966;2022-07-21T05:03:59;7.45;;;3.30;;
65202;SDS011;51788;45.124;38.966;2022-07-21T05:06:25;6.05;;;3.33;;
65202;SDS011;51788;45.124;38.966;2022-07-21T05:08:51;7.65;;;3.40;;
65202;SDS011;51788;45.124;38.966;2022-07-21T05:11:17;9.27;;;3.65;;
65202;SDS011;51788;45.124;38.966;2022-07-21T05:13:43;10.15;;;3.67;;
65202;SDS011;51788;45.124;38.966;2022-07-21T05:16:09;7.32;;;3.20;;
65202;SDS011;51788;45.124;38.966;2022-07-21T05:18:35;10.15;;;3.70;;
65202;SDS011;51788;45.124;38.966;2022-07-21T05:21:01;7.55;;;3.75;;
65202;SDS011;51788;45.124;38.966;2022-07-21T05:23:27;12.57;;;3.53;;
65202;SDS011;51788;45.124;38.966;2022-07-21T05:25:53;10.50;;;3.38;;
65202;SDS011;51788;45.124;38.966;2022-07-21T05:28:19;12.98;;;3.40;;
65202;SDS011;51788;45.124;38.966;2022-07-21T05:30:45;11.88;;;3.70;;
65202;SDS011;51788;45.124;38.966;2022-07-21T05:33:11;7.90;;;3.50;;
65202;SDS011;51788;45.124;38.966;2022-07-21T05:35:37;7.60;;;3.83;;
65202;SDS011;51788;45.124;38.966;2022-07-21T05:38:03;8.77;;;3.80;;
65202;SDS011;51788;45.124;38.966;2022-07-21T05:40:29;8.27;;;3.50;;
65202;SDS011;51788;45.124;38.966;2022-07-21T05:42:55;11.65;;;4.10;;
65202;SDS011;51788;45.124;38.966;2022-07-21T05:45:21;15.25;;;3.90;;
65202;SDS011;51788;45.124;38.966;2022-07-21T05:47:47;4.72;;;3.67;;
65202;SDS011;51788;45.124;38.966;2022-07-21T05:50:13;3.72;;;3.40;;
65202;SDS011;51788;45.124;38.966;2022-07-21T05:52:39;9.52;;;3.38;;
65202;SDS011;51788;45.124;38.966;2022-07-21T05:55:05;14.73;;;3.88;;
65202;SDS011;51788;45.124;38.966;2022-07-21T05:57:32;8.75;;;3.90;;
65202;SDS011;51788;45.124;38.966;2022-07-21T05:59:59;8.10;;;4.88;;
65202;SDS011;51788;45.124;38.966;2022-07-21T06:02:26;22.63;;;3.50;;
65202;SDS011;51788;45.124;38.966;2022-07-21T06:04:56;9.75;;;3.65;;
65202;SDS011;51788;45.124;38.966;2022-07-21T06:07:22;9.60;;;3.88;;
65202;SDS011;51788;45.124;38.966;2022-07-21T06:09:48;7.93;;;4.13;;
65202;SDS011;51788;45.124;38.966;2022-07-21T06:12:14;13.45;;;3.92;;
65202;SDS011;51788;45.124;38.966;2022-07-21T06:14:40;10.57;;;3.92;;
65202;SDS011;51788;45.124;38.966;2022-07-21T06:17:06;5.68;;;3.10;;
65202;SDS011;51788;45.124;38.966;2022-07-21T06:19:32;5.38;;;3.65;;
65202;SDS011;51788;45.124;38.966;2022-07-21T06:21:58;13.00;;;4.70;;
65202;SDS011;51788;45.124;38.966;2022-07-21T06:24:24;7.07;;;3.38;;
65202;SDS011;51788;45.124;38.966;2022-07-21T06:26:52;8.48;;;3.60;;
65202;SDS011;51788;45.124;38.966;2022-07-21T06:29:23;9.95;;;3.72;;
65202;SDS011;51788;45.124;38.966;2022-07-21T06:31:50;27.05;;;4.40;;
65202;SDS011;51788;45.124;38.966;2022-07-21T06:34:16;10.73;;;3.90;;
65202;SDS011;51788;45.124;38.966;2022-07-21T06:36:42;15.23;;;3.58;;
65202;SDS011;51788;45.124;38.966;2022-07-21T06:39:08;6.15;;;3.80;;
65202;SDS011;51788;45.124;38.966;2022-07-21T06:41:38;3.95;;;3.20;;
65202;SDS011;51788;45.124;38.966;2022-07-21T06:44:11;3.40;;;2.90;;
65202;SDS011;51788;45.124;38.966;2022-07-21T06:46:37;9.00;;;2.88;;
65202;SDS011;51788;45.124;38.966;2022-07-21T06:49:03;13.82;;;3.97;;
65202;SDS011;51788;45.124;38.966;2022-07-21T06:51:29;14.43;;;4.30;;
65202;SDS011;51788;45.124;38.966;2022-07-21T06:53:55;4.03;;;3.28;;
65202;SDS011;51788;45.124;38.966;2022-07-21T06:56:22;7.80;;;3.17;;
65202;SDS011;51788;45.124;38.966;2022-07-21T06:58:48;8.68;;;3.75;;
65202;SDS011;51788;45.124;38.966;2022-07-21T07:01:14;13.73;;;3.35;;
65202;SDS011;51788;45.124;38.966;2022-07-21T07:03:42;4.60;;;3.28;;
65202;SDS011;51788;45.124;38.966;2022-07-21T07:06:09;4.35;;;3.00;;
65202;SDS011;51788;45.124;38.966;2022-07-21T07:08:37;7.28;;;3.30;;
65202;SDS011;51788;45.124;38.966;2022-07-21T07:11:03;11.07;;;3.33;;
65202;SDS011;51788;45.124;38.966;2022-07-21T07:13:30;24.58;;;3.40;;
65202;SDS011;51788;45.124;38.966;2022-07-21T07:15:56;6.00;;;3.28;;
65202;SDS011;51788;45.124;38.966;2022-07-21T07:18:22;17.25;;;3.42;;
65202;SDS011;51788;45.124;38.966;2022-07-21T07:20:49;21.75;;;3.58;;
65202;SDS011;51788;45.124;38.966;2022-07-21T07:23:16;14.70;;;3.08;;
65202;SDS011;51788;45.124;38.966;2022-07-21T07:25:42;14.32;;;3.78;;
65202;SDS011;51788;45.124;38.966;2022-07-21T07:28:08;9.02;;;2.90;;
65202;SDS011;51788;45.124;38.966;2022-07-21T07:30:34;13.68;;;3.65;;
65202;SDS011;51788;45.124;38.966;2022-07-21T07:33:01;4.45;;;3.70;;
65202;SDS011;51788;45.124;38.966;2022-07-21T07:35:27;13.75;;;3.75;;
65202;SDS011;51788;45.124;38.966;2022-07-21T07:37:53;9.63;;;3.78;;
65202;SDS011;51788;45.124;38.966;2022-07-21T07:40:20;19.05;;;3.72;;
65202;SDS011;51788;45.124;38.966;2022-07-21T07:42:48;15.18;;;3.40;;
65202;SDS011;51788;45.124;38.966;2022-07-21T07:45:15;4.60;;;3.20;;
65202;SDS011;51788;45.124;38.966;2022-07-21T07:47:41;6.05;;;2.90;;
65202;SDS011;51788;45.124;38.966;2022-07-21T07:50:09;8.75;;;3.28;;
65202;SDS011;51788;45.124;38.966;2022-07-21T07:52:37;3.75;;;2.97;;
65202;SDS011;51788;45.124;38.966;2022-07-21T07:55:04;9.27;;;2.85;;
65202;SDS011;51788;45.124;38.966;2022-07-21T07:57:34;16.23;;;2.70;;
65202;SDS011;51788;45.124;38.966;2022-07-21T08:00:00;18.80;;;3.47;;
65202;SDS011;51788;45.124;38.966;2022-07-21T08:02:37;10.48;;;3.10;;
65202;SDS011;51788;45.124;38.966;2022-07-21T08:05:04;5.13;;;3.10;;
65202;SDS011;51788;45.124;38.966;2022-07-21T08:07:30;10.73;;;3.20;;
65202;SDS011;51788;45.124;38.966;2022-07-21T08:09:56;8.82;;;3.10;;
65202;SDS011;51788;45.124;38.966;2022-07-21T08:12:22;11.52;;;3.17;;
65202;SDS011;51788;45.124;38.966;2022-07-21T08:14:48;10.85;;;3.47;;
65202;SDS011;51788;45.124;38.966;2022-07-21T08:17:14;8.48;;;2.97;;
65202;SDS011;51788;45.124;38.966;2022-07-21T08:19:42;9.15;;;2.65;;
65202;SDS011;51788;45.124;38.966;2022-07-21T08:22:09;12.95;;;3.38;;
65202;SDS011;51788;45.124;38.966;2022-07-21T08:24:35;13.70;;;3.10;;
65202;SDS011;51788;45.124;38.966;2022-07-21T08:27:01;3.05;;;2.63;;
65202;SDS011;51788;45.124;38.966;2022-07-21T08:29:27;3.63;;;2.20;;
65202;SDS011;51788;45.124;38.966;2022-07-21T08:31:53;7.03;;;2.40;;
65202;SDS011;51788;45.124;38.966;2022-07-21T08:34:19;16.10;;;2.10;;
65202;SDS011;51788;45.124;38.966;2022-07-21T08:36:45;3.85;;;2.10;;
65202;SDS011;51788;45.124;38.966;2022-07-21T08:39:11;2.30;;;2.10;;
65202;SDS011;51788;45.124;38.966;2022-07-21T08:41:37;2.78;;;1.88;;
65202;SDS011;51788;45.124;38.966;2022-07-21T08:44:05;12.30;;;2.10;;
65202;SDS011;51788;45.124;38.966;2022-07-21T08:46:33;6.30;;;2.53;;
65202;SDS011;51788;45.124;38.966;2022-07-21T08:49:01;6.95;;;2.15;;
65202;SDS011;51788;45.124;38.966;2022-07-21T08:51:31;8.95;;;1.80;;
65202;SDS011;51788;45.124;38.966;2022-07-21T08:54:01;7.75;;;2.65;;
65202;SDS011;51788;45.124;38.966;2022-07-21T08:56:28;2.10;;;1.95;;
65202;SDS011;51788;45.124;38.966;2022-07-21T08:58:54;2.25;;;2.03;;
65202;SDS011;51788;45.124;38.966;2022-07-21T09:01:21;8.25;;;2.22;;
65202;SDS011;51788;45.124;38.966;2022-07-21T09:03:51;6.07;;;1.80;;
65202;SDS011;51788;45.124;38.966;2022-07-21T09:06:18;15.45;;;3.15;;
65202;SDS011;51788;45.124;38.966;2022-07-21T09:08:49;6.20;;;2.00;;
65202;SDS011;51788;45.124;38.966;2022-07-21T09:11:26;2.95;;;2.13;;
65202;SDS011;51788;45.124;38.966;2022-07-21T09:14:08;12.73;;;3.00;;
65202;SDS011;51788;45.124;38.966;2022-07-21T09:16:37;23.88;;;2.70;;
65202;SDS011;51788;45.124;38.966;2022-07-21T09:19:03;7.50;;;2.33;;
65202;SDS011;51788;45.124;38.966;2022-07-21T09:21:31;5.53;;;2.30;;
65202;SDS011;51788;45.124;38.966;2022-07-21T09:29:45;4.78;;;1.88;;
65202;SDS011;51788;45.124;38.966;2022-07-21T09:32:18;9.75;;;2.45;;
65202;SDS011;51788;45.124;38.966;2022-07-21T09:34:46;5.35;;;2.70;;
65202;SDS011;51788;45.124;38.966;2022-07-21T09:37:15;21.77;;;2.90;;
65202;SDS011;51788;45.124;38.966;2022-07-21T09:39:45;10.48;;;3.15;;
65202;SDS011;51788;45.124;38.966;2022-07-21T09:47:38;7.00;;;2.38;;
65202;SDS011;51788;45.124;38.966;2022-07-21T09:50:08;3.15;;;2.17;;
65202;SDS011;51788;45.124;38.966;2022-07-21T09:52:42;2.88;;;1.90;;
65202;SDS011;51788;45.124;38.966;2022-07-21T09:55:10;19.00;;;3.37;;
65202;SDS011;51788;45.124;38.966;2022-07-21T09:57:38;9.40;;;2.92;;
65202;SDS011;51788;45.124;38.966;2022-07-21T10:00:06;4.63;;;2.85;;
65202;SDS011;51788;45.124;38.966;2022-07-21T10:02:34;10.32;;;3.33;;
65202;SDS011;51788;45.124;38.966;2022-07-21T10:05:05;3.50;;;2.38;;
65202;SDS011;51788;45.124;38.966;2022-07-21T10:07:35;8.65;;;3.05;;
65202;SDS011;51788;45.124;38.966;2022-07-21T10:10:03;11.63;;;2.78;;
65202;SDS011;51788;45.124;38.966;2022-07-21T10:12:29;9.70;;;2.90;;
65202;SDS011;51788;45.124;38.966;2022-07-21T10:14:56;6.00;;;2.83;;
65202;SDS011;51788;45.124;38.966;2022-07-21T10:17:23;10.10;;;3.08;;
65202;SDS011;51788;45.124;38.966;2022-07-21T10:25:18;3.28;;;2.70;;
65202;SDS011;51788;45.124;38.966;2022-07-21T10:30:56;5.82;;;4.13;;
65202;SDS011;51788;45.124;38.966;2022-07-21T10:36:08;11.25;;;3.28;;
65202;SDS011;51788;45.124;38.966;2022-07-21T10:38:37;6.03;;;2.83;;
65202;SDS011;51788;45.124;38.966;2022-07-21T10:41:04;5.50;;;2.90;;
65202;SDS011;51788;45.124;38.966;2022-07-21T10:45:58;4.00;;;2.92;;
65202;SDS011;51788;45.124;38.966;2022-07-21T10:51:24;6.32;;;2.60;;
65202;SDS011;51788;45.124;38.966;2022-07-21T10:54:14;6.10;;;2.67;;
65202;SDS011;51788;45.124;38.966;2022-07-21T10:56:45;20.92;;;2.42;;
65202;SDS011;51788;45.124;38.966;2022-07-21T10:59:11;12.63;;;2.83;;
65202;SDS011;51788;45.124;38.966;2022-07-21T11:01:37;4.57;;;2.72;;
65202;SDS011;51788;45.124;38.966;2022-07-21T11:04:08;6.15;;;3.28;;
65202;SDS011;51788;45.124;38.966;2022-07-21T11:06:37;7.28;;;2.22;;
65202;SDS011;51788;45.124;38.966;2022-07-21T11:09:11;5.47;;;2.40;;
65202;SDS011;51788;45.124;38.966;2022-07-21T11:11:58;17.67;;;2.60;;
65202;SDS011;51788;45.124;38.966;2022-07-21T11:17:24;5.43;;;3.50;;
65202;SDS011;51788;45.124;38.966;2022-07-21T11:19:53;3.10;;;2.90;;
65202;SDS011;51788;45.124;38.966;2022-07-21T11:22:26;3.58;;;3.17;;
65202;SDS011;51788;45.124;38.966;2022-07-21T11:25:04;4.30;;;3.45;;
65202;SDS011;51788;45.124;38.966;2022-07-21T11:27:32;6.90;;;3.60;;
65202;SDS011;51788;45.124;38.966;2022-07-21T11:30:00;5.22;;;3.03;;
65202;SDS011;51788;45.124;38.966;2022-07-21T11:32:29;4.00;;;3.20;;
65202;SDS011;51788;45.124;38.966;2022-07-21T11:35:00;5.38;;;2.90;;
65202;SDS011;51788;45.124;38.966;2022-07-21T11:40:08;4.25;;;2.55;;
65202;SDS011;51788;45.124;38.966;2022-07-21T11:42:38;4.32;;;2.75;;
65202;SDS011;51788;45.124;38.966;2022-07-21T11:45:04;7.00;;;2.70;;
65202;SDS011;51788;45.124;38.966;2022-07-21T11:47:32;5.38;;;3.28;;
65202;SDS011;51788;45.124;38.966;2022-07-21T11:50:01;5.38;;;3.17;;
65202;SDS011;51788;45.124;38.966;2022-07-21T11:52:33;11.50;;;3.10;;
65202;SDS011;51788;45.124;38.966;2022-07-21T11:55:02;12.55;;;2.85;;
65202;SDS011;51788;45.124;38.966;2022-07-21T11:57:30;3.03;;;2.75;;
65202;SDS011;51788;45.124;38.966;2022-07-21T11:59:58;2.80;;;2.60;;
65202;SDS011;51788;45.124;38.966;2022-07-21T12:02:28;4.18;;;2.67;;
65202;SDS011;51788;45.124;38.966;2022-07-21T12:07:25;4.95;;;2.85;;
65202;SDS011;51788;45.124;38.966;2022-07-21T12:12:35;12.43;;;2.97;;
65202;SDS011;51788;45.124;38.966;2022-07-21T12:15:30;4.10;;;3.40;;
65202;SDS011;51788;45.124;38.966;2022-07-21T12:18:00;11.32;;;5.63;;
65202;SDS011;51788;45.124;38.966;2022-07-21T12:20:35;6.85;;;4.35;;
65202;SDS011;51788;45.124;38.966;2022-07-21T12:23:17;9.45;;;3.80;;
65202;SDS011;51788;45.124;38.966;2022-07-21T12:25:45;9.10;;;4.70;;
65202;SDS011;51788;45.124;38.966;2022-07-21T12:28:12;6.18;;;3.72;;
65202;SDS011;51788;45.124;38.966;2022-07-21T12:30:39;5.75;;;3.40;;
65202;SDS011;51788;45.124;38.966;2022-07-21T12:33:09;12.52;;;3.20;;
65202;SDS011;51788;45.124;38.966;2022-07-21T12:35:38;13.13;;;4.22;;
65202;SDS011;51788;45.124;38.966;2022-07-21T12:40:34;7.88;;;3.55;;
65202;SDS011;51788;45.124;38.966;2022-07-21T12:43:05;6.20;;;3.50;;
65202;SDS011;51788;45.124;38.966;2022-07-21T12:45:55;5.38;;;3.88;;
65202;SDS011;51788;45.124;38.966;2022-07-21T12:48:40;6.53;;;3.45;;
65202;SDS011;51788;45.124;38.966;2022-07-21T12:51:08;12.30;;;3.50;;
65202;SDS011;51788;45.124;38.966;2022-07-21T12:53:39;4.00;;;3.28;;
65202;SDS011;51788;45.124;38.966;2022-07-21T12:56:07;8.02;;;3.45;;
65202;SDS011;51788;45.124;38.966;2022-07-21T12:58:34;14.13;;;3.28;;
65202;SDS011;51788;45.124;38.966;2022-07-21T13:01:01;11.52;;;3.47;;
65202;SDS011;51788;45.124;38.966;2022-07-21T13:03:28;7.85;;;3.67;;
65202;SDS011;51788;45.124;38.966;2022-07-21T13:05:54;9.57;;;3.95;;
65202;SDS011;51788;45.124;38.966;2022-07-21T13:08:21;18.90;;;4.10;;
65202;SDS011;51788;45.124;38.966;2022-07-21T13:10:47;10.38;;;3.28;;
65202;SDS011;51788;45.124;38.966;2022-07-21T13:13:13;8.60;;;3.42;;
65202;SDS011;51788;45.124;38.966;2022-07-21T13:15:39;8.80;;;3.78;;
65202;SDS011;51788;45.124;38.966;2022-07-21T13:18:05;5.80;;;3.28;;
65202;SDS011;51788;45.124;38.966;2022-07-21T13:20:31;14.45;;;4.03;;
65202;SDS011;51788;45.124;38.966;2022-07-21T13:22:57;6.07;;;3.67;;
65202;SDS011;51788;45.124;38.966;2022-07-21T13:25:23;9.95;;;3.75;;
65202;SDS011;51788;45.124;38.966;2022-07-21T13:27:49;5.05;;;3.72;;
65202;SDS011;51788;45.124;38.966;2022-07-21T13:30:15;5.30;;;3.22;;
65202;SDS011;51788;45.124;38.966;2022-07-21T13:32:42;7.65;;;4.45;;
65202;SDS011;51788;45.124;38.966;2022-07-21T13:35:08;7.25;;;3.28;;
65202;SDS011;51788;45.124;38.966;2022-07-21T13:37:34;5.65;;;3.60;;
65202;SDS011;51788;45.124;38.966;2022-07-21T13:40:00;7.45;;;3.55;;
65202;SDS011;51788;45.124;38.966;2022-07-21T13:42:28;6.25;;;3.65;;
65202;SDS011;51788;45.124;38.966;2022-07-21T13:44:54;7.93;;;4.00;;
65202;SDS011;51788;45.124;38.966;2022-07-21T13:47:20;6.00;;;3.42;;
65202;SDS011;51788;45.124;38.966;2022-07-21T13:49:46;4.55;;;3.45;;
65202;SDS011;51788;45.124;38.966;2022-07-21T13:52:11;17.15;;;4.25;;
65202;SDS011;51788;45.124;38.966;2022-07-21T13:54:37;11.40;;;4.57;;
65202;SDS011;51788;45.124;38.966;2022-07-21T13:57:04;19.48;;;4.07;;
65202;SDS011;51788;45.124;38.966;2022-07-21T13:59:30;5.82;;;3.13;;
65202;SDS011;51788;45.124;38.966;2022-07-21T14:01:56;12.48;;;3.70;;
65202;SDS011;51788;45.124;38.966;2022-07-21T14:04:22;12.73;;;4.13;;
65202;SDS011;51788;45.124;38.966;2022-07-21T14:06:48;12.00;;;4.03;;
65202;SDS011;51788;45.124;38.966;2022-07-21T14:09:15;10.98;;;4.40;;
65202;SDS011;51788;45.124;38.966;2022-07-21T14:11:42;8.35;;;4.28;;
65202;SDS011;51788;45.124;38.966;2022-07-21T14:14:08;10.90;;;3.90;;
65202;SDS011;51788;45.124;38.966;2022-07-21T14:16:36;9.77;;;3.90;;
65202;SDS011;51788;45.124;38.966;2022-07-21T14:19:02;9.10;;;4.05;;
65202;SDS011;51788;45.124;38.966;2022-07-21T14:21:28;11.75;;;3.80;;
65202;SDS011;51788;45.124;38.966;2022-07-21T14:23:54;15.15;;;3.35;;
65202;SDS011;51788;45.124;38.966;2022-07-21T14:26:38;14.98;;;3.90;;
65202;SDS011;51788;45.124;38.966;2022-07-21T14:29:05;8.70;;;4.30;;
65202;SDS011;51788;45.124;38.966;2022-07-21T14:31:31;5.50;;;3.55;;
65202;SDS011;51788;45.124;38.966;2022-07-21T14:33:57;5.65;;;3.63;;
65202;SDS011;51788;45.124;38.966;2022-07-21T14:36:23;14.57;;;3.80;;
65202;SDS011;51788;45.124;38.966;2022-07-21T14:38:49;4.60;;;3.88;;
65202;SDS011;51788;45.124;38.966;2022-07-21T14:41:15;8.80;;;3.60;;
65202;SDS011;51788;45.124;38.966;2022-07-21T14:43:42;10.70;;;3.63;;
65202;SDS011;51788;45.124;38.966;2022-07-21T14:46:08;86.15;;;7.38;;
65202;SDS011;51788;45.124;38.966;2022-07-21T14:48:34;8.95;;;4.78;;
65202;SDS011;51788;45.124;38.966;2022-07-21T14:51:00;7.28;;;3.17;;
65202;SDS011;51788;45.124;38.966;2022-07-21T14:53:26;7.10;;;3.90;;
65202;SDS011;51788;45.124;38.966;2022-07-21T14:55:52;10.05;;;3.08;;
65202;SDS011;51788;45.124;38.966;2022-07-21T14:58:18;9.45;;;3.85;;
65202;SDS011;51788;45.124;38.966;2022-07-21T15:00:44;9.18;;;2.85;;
65202;SDS011;51788;45.124;38.966;2022-07-21T15:03:10;15.65;;;3.33;;
65202;SDS011;51788;45.124;38.966;2022-07-21T15:05:36;15.10;;;3.28;;
65202;SDS011;51788;45.124;38.966;2022-07-21T15:08:02;23.92;;;3.38;;
65202;SDS011;51788;45.124;38.966;2022-07-21T15:10:28;14.50;;;3.30;;
65202;SDS011;51788;45.124;38.966;2022-07-21T15:12:54;19.23;;;3.00;;
65202;SDS011;51788;45.124;38.966;2022-07-21T15:15:20;3.42;;;3.03;;